Time;durP1;ratioP1;P1;durP2;ratioP2;P2;SDS_P1;SDS_P2;PMS_P1;PMS_P2;Temp;Humidity;BMP_temperature;BMP_pressure;BME280_temperature;BME280_humidity;BME280_pressure;Samples;Min_cycle;Max_cycle;Signal;HPM_P1;HPM_P2
2023/08/26 00:00:48;;;;;;;1.30;1.20;;;;;;;17.13;91.67;100934.13;5057971;28;20112;-74
2023/08/26 00:03:14;;;;;;;2.45;1.40;;;;;;;17.12;91.69;100924.53;5058393;28;20036;-74
2023/08/26 00:05:41;;;;;;;2.53;1.60;;;;;;;17.12;91.79;100927.16;5058027;28;20082;-74
2023/08/26 00:08:06;;;;;;;1.73;1.60;;;;;;;17.13;91.49;100930.66;5058099;28;20029;-74
2023/08/26 00:10:31;;;;;;;1.73;1.60;;;;;;;17.11;91.38;100925.47;5056829;28;20055;-74
2023/08/26 00:12:57;;;;;;;3.63;2.35;;;;;;;17.12;91.51;100927.16;5057438;28;20033;-74
2023/08/26 00:15:22;;;;;;;4.10;1.73;;;;;;;17.11;91.36;100916.69;5056244;28;20104;-74
2023/08/26 00:17:48;;;;;;;7.22;1.67;;;;;;;17.12;91.63;100918.38;5071286;28;20231;-74
2023/08/26 00:20:14;;;;;;;3.92;1.75;;;;;;;17.12;91.56;100915.72;5075290;28;20085;-74
2023/08/26 00:22:40;;;;;;;3.97;1.58;;;;;;;17.11;91.48;100920.16;5055739;28;20122;-74
2023/08/26 00:25:06;;;;;;;2.67;1.80;;;;;;;17.11;91.47;100919.34;5056192;28;20041;-74
2023/08/26 00:27:31;;;;;;;3.28;1.48;;;;;;;17.10;91.35;100920.25;5056065;28;20071;-74
2023/08/26 00:29:57;;;;;;;3.33;1.75;;;;;;;17.08;91.25;100915.94;5057372;28;20045;-74
2023/08/26 00:32:22;;;;;;;4.88;1.77;;;;;;;17.08;91.15;100918.59;5038164;28;20033;-74
2023/08/26 00:34:48;;;;;;;3.55;1.42;;;;;;;17.05;91.02;100908.19;5036190;28;20047;-74
2023/08/26 00:37:13;;;;;;;4.97;1.95;;;;;;;17.06;91.16;100904.63;5052734;28;20032;-74
2023/08/26 00:39:39;;;;;;;8.18;1.95;;;;;;;17.05;91.12;100912.66;5055984;28;20106;-74
2023/08/26 00:42:04;;;;;;;2.65;1.63;;;;;;;17.04;91.05;100903.84;5055671;28;20094;-74
2023/08/26 00:44:30;;;;;;;2.33;1.48;;;;;;;17.02;91.26;100908.41;5056036;28;20033;-74
2023/08/26 00:46:56;;;;;;;4.93;1.40;;;;;;;17.02;90.86;100913.69;5055819;28;20048;-74
2023/08/26 00:49:22;;;;;;;2.58;1.25;;;;;;;17.01;91.00;100905.88;5056607;28;20040;-74
2023/08/26 00:51:48;;;;;;;4.20;1.40;;;;;;;17.00;91.05;100901.53;5056096;28;20041;-74
2023/08/26 00:54:14;;;;;;;4.22;1.52;;;;;;;16.99;90.78;100903.34;5056398;28;20278;-74
2023/08/26 00:56:39;;;;;;;2.58;1.40;;;;;;;16.97;91.02;100894.66;5055967;28;20096;-74
2023/08/26 00:59:05;;;;;;;2.95;1.30;;;;;;;16.97;90.78;100893.78;5056538;28;20072;-74
2023/08/26 01:01:32;;;;;;;3.78;1.20;;;;;;;16.95;91.10;100899.16;5055926;28;20096;-74
2023/08/26 01:03:57;;;;;;;1.40;1.17;;;;;;;16.94;91.12;100897.50;5043992;28;20044;-74
2023/08/26 01:06:23;;;;;;;4.00;1.50;;;;;;;16.93;90.94;100895.78;5043824;28;20048;-74
2023/08/26 01:08:49;;;;;;;4.10;1.80;;;;;;;16.92;91.09;100898.53;5056160;28;20187;-74
2023/08/26 01:11:39;;;;;;;3.78;1.65;;;;;;;16.90;91.09;100896.00;5057582;28;20040;-74
2023/08/26 01:14:22;;;;;;;5.72;1.27;;;;;;;16.87;91.04;100891.75;5060449;28;20274;-74
2023/08/26 01:16:48;;;;;;;2.15;1.30;;;;;;;16.86;91.21;100892.72;5055693;28;20037;-74
2023/08/26 01:19:32;;;;;;;3.10;1.33;;;;;;;16.85;91.06;100884.88;5060326;28;20237;-74
2023/08/26 01:22:02;;;;;;;2.42;1.50;;;;;;;16.83;91.10;100892.91;5060154;28;20043;-74
2023/08/26 01:24:27;;;;;;;2.97;1.42;;;;;;;16.82;91.12;100882.41;5059349;28;20358;-74
2023/08/26 01:26:53;;;;;;;3.75;1.27;;;;;;;16.79;91.01;100886.09;5059982;28;20124;-74
2023/08/26 01:29:18;;;;;;;3.90;1.60;;;;;;;16.77;91.32;100885.38;5059167;28;20332;-74
2023/08/26 01:31:48;;;;;;;1.60;0.98;;;;;;;16.75;91.04;100884.59;5059439;28;20355;-74
2023/08/26 01:34:20;;;;;;;8.70;1.33;;;;;;;16.75;91.14;100889.88;5059381;28;20231;-74
2023/08/26 01:36:47;;;;;;;3.65;1.45;;;;;;;16.72;91.04;100895.38;5059301;28;20240;-74
2023/08/26 01:39:15;;;;;;;3.05;1.25;;;;;;;16.70;91.16;100898.13;5059018;28;20033;-73
2023/08/26 01:41:46;;;;;;;3.58;1.70;;;;;;;16.68;91.14;100892.09;5058208;28;20248;-74
2023/08/26 01:44:12;;;;;;;3.45;1.38;;;;;;;16.67;91.18;100887.75;5055148;28;20382;-74
2023/08/26 01:46:38;;;;;;;2.63;1.42;;;;;;;16.66;90.97;100886.06;5045138;28;20049;-74
2023/08/26 01:49:04;;;;;;;5.53;2.15;;;;;;;16.66;90.98;100891.34;5058491;28;20110;-74
2023/08/26 01:51:31;;;;;;;5.22;1.60;;;;;;;16.64;91.04;100882.66;5048539;28;20047;-74
2023/08/26 01:53:56;;;;;;;4.65;1.73;;;;;;;16.63;91.26;100882.78;5058159;28;20060;-74
2023/08/26 01:56:21;;;;;;;2.83;1.75;;;;;;;16.62;91.23;100884.53;5031408;28;20048;-74
2023/08/26 01:58:47;;;;;;;1.63;1.23;;;;;;;16.61;91.26;100877.59;5041449;28;20064;-74
2023/08/26 02:01:12;;;;;;;1.63;1.10;;;;;;;16.61;91.42;100877.59;5049297;28;20044;-74
2023/08/26 02:03:38;;;;;;;3.60;1.83;;;;;;;16.60;91.30;100877.69;5044112;28;20033;-74
2023/08/26 02:06:03;;;;;;;8.02;2.35;;;;;;;16.59;91.38;100881.25;5050068;28;20245;-74
2023/08/26 02:08:28;;;;;;;4.28;1.70;;;;;;;16.57;91.56;100878.75;5058360;28;20045;-74
2023/08/26 02:10:57;;;;;;;2.45;1.58;;;;;;;16.57;91.42;100883.16;5055168;28;20463;-74
2023/08/26 02:13:24;;;;;;;3.17;1.65;;;;;;;16.57;91.88;100881.38;5058120;28;20040;-74
2023/08/26 02:15:49;;;;;;;1.90;1.55;;;;;;;16.55;91.99;100885.06;5034088;28;20032;-74
2023/08/26 02:18:15;;;;;;;2.15;1.20;;;;;;;16.56;92.10;100889.41;5058092;28;20036;-74
2023/08/26 02:20:40;;;;;;;3.28;1.58;;;;;;;16.55;92.10;100879.75;5058522;28;20028;-74
2023/08/26 02:23:06;;;;;;;2.55;1.35;;;;;;;16.53;92.40;100882.50;5057753;28;20040;-74
2023/08/26 02:25:31;;;;;;;4.78;2.15;;;;;;;16.53;92.40;100876.38;5058318;28;20033;-74
2023/08/26 02:27:57;;;;;;;4.63;1.60;;;;;;;16.52;92.66;100886.13;5067022;28;20104;-74
2023/08/26 02:30:22;;;;;;;6.78;1.80;;;;;;;16.51;92.84;100879.13;5078420;28;20396;-74
2023/08/26 02:32:47;;;;;;;3.38;1.48;;;;;;;16.50;92.93;100882.72;5063811;28;20040;-74
2023/08/26 02:35:13;;;;;;;4.25;1.75;;;;;;;16.50;92.90;100888.84;5034713;28;20037;-74
2023/08/26 02:37:38;;;;;;;3.20;1.65;;;;;;;16.50;92.86;100880.09;5050967;28;20095;-75
2023/08/26 02:40:05;;;;;;;5.75;1.75;;;;;;;16.50;93.07;100882.72;5056813;28;20036;-76
2023/08/26 02:42:32;;;;;;;3.35;1.60;;;;;;;16.49;92.80;100879.22;5055986;28;20060;-76
2023/08/26 02:44:58;;;;;;;3.08;1.42;;;;;;;16.48;92.96;100887.25;5056954;28;20063;-76
2023/08/26 02:47:23;;;;;;;3.30;1.33;;;;;;;16.47;93.22;100878.47;5056610;28;20029;-76
2023/08/26 02:49:49;;;;;;;2.30;1.42;;;;;;;16.46;92.82;100873.28;5056642;28;20344;-76
2023/08/26 02:52:14;;;;;;;3.92;1.50;;;;;;;16.47;92.67;100878.47;5057117;28;20331;-76
2023/08/26 02:54:39;;;;;;;2.25;1.50;;;;;;;16.45;92.98;100879.53;5055996;28;20095;-76
2023/08/26 02:57:05;;;;;;;5.10;1.48;;;;;;;16.44;92.94;100870.72;5056690;28;20270;-76
2023/08/26 02:59:30;;;;;;;4.93;1.80;;;;;;;16.43;93.11;100876.13;5056368;28;20365;-76
2023/08/26 03:02:03;;;;;;;3.17;1.70;;;;;;;16.43;93.01;100881.44;5039218;28;20037;-76
2023/08/26 03:04:30;;;;;;;4.55;1.58;;;;;;;16.41;92.76;100881.53;5064612;28;20078;-76
2023/08/26 03:06:55;;;;;;;1.38;1.27;;;;;;;16.40;92.90;100881.63;5058761;28;20286;-76
2023/08/26 03:09:21;;;;;;;3.42;1.30;;;;;;;16.39;93.03;100882.53;5056356;28;20104;-76
2023/08/26 03:11:46;;;;;;;3.67;1.80;;;;;;;16.37;92.82;100879.16;5049186;28;20140;-76
2023/08/26 03:14:12;;;;;;;2.58;1.52;;;;;;;16.37;92.79;100880.03;5055840;28;20266;-76
2023/08/26 03:16:40;;;;;;;3.25;1.58;;;;;;;16.37;92.99;100879.16;5049106;28;20314;-76
2023/08/26 03:19:05;;;;;;;2.58;1.73;;;;;;;16.34;92.72;100888.16;5053422;28;20100;-76
2023/08/26 03:21:31;;;;;;;2.05;1.42;;;;;;;16.34;92.76;100885.50;5050085;28;20056;-76
2023/08/26 03:23:57;;;;;;;2.83;1.60;;;;;;;16.33;92.92;100881.16;5056111;28;20036;-76
2023/08/26 03:26:23;;;;;;;1.73;1.63;;;;;;;16.31;92.81;100886.53;5049305;28;20040;-76
2023/08/26 03:28:48;;;;;;;4.38;2.03;;;;;;;16.30;92.89;100884.84;5055974;28;20032;-76
2023/08/26 03:31:14;;;;;;;3.90;1.88;;;;;;;16.29;92.68;100884.94;5056042;28;20355;-76
2023/08/26 03:33:40;;;;;;;5.82;2.22;;;;;;;16.28;92.47;100884.09;5054173;28;20036;-76
2023/08/26 03:36:06;;;;;;;3.67;1.55;;;;;;;16.26;92.41;100883.34;5055866;28;20041;-76
2023/08/26 03:38:32;;;;;;;3.80;2.17;;;;;;;16.25;92.25;100886.09;5068908;28;20236;-76
2023/08/26 03:40:58;;;;;;;3.10;1.80;;;;;;;16.22;92.06;100881.84;5075898;28;20094;-76
2023/08/26 03:43:23;;;;;;;6.03;2.20;;;;;;;16.21;92.23;100879.28;5059683;28;20172;-76
2023/08/26 03:45:49;;;;;;;5.53;2.10;;;;;;;16.19;92.24;100887.34;5055580;28;20047;-76
2023/08/26 03:48:14;;;;;;;3.28;2.03;;;;;;;16.18;92.37;100893.56;5055345;28;20255;-76
2023/08/26 03:50:49;;;;;;;3.67;2.08;;;;;;;16.18;92.46;100898.84;5030852;28;20033;-76
2023/08/26 03:53:15;;;;;;;4.03;2.00;;;;;;;16.16;92.43;100892.81;5048939;28;20044;-76
2023/08/26 03:55:41;;;;;;;3.00;1.63;;;;;;;16.16;92.71;100891.97;5054862;28;20325;-76
2023/08/26 03:58:06;;;;;;;6.72;1.80;;;;;;;16.14;92.98;100894.69;5055717;28;20194;-76
2023/08/26 04:00:32;;;;;;;2.72;1.67;;;;;;;16.12;92.77;100897.44;5055073;28;20021;-76
2023/08/26 04:02:57;;;;;;;4.20;1.88;;;;;;;16.12;92.74;100896.59;5054907;28;20041;-76
2023/08/26 04:05:24;;;;;;;4.15;1.88;;;;;;;16.10;92.86;100895.84;5055048;28;20037;-76
2023/08/26 04:07:49;;;;;;;3.72;1.67;;;;;;;16.09;92.88;100902.06;5054849;28;20243;-76
2023/08/26 04:10:15;;;;;;;7.88;2.30;;;;;;;16.08;92.86;100901.22;5055160;28;20029;-76
2023/08/26 04:12:40;;;;;;;4.40;1.77;;;;;;;16.06;92.59;100900.47;5054388;28;20049;-76
2023/08/26 04:15:07;;;;;;;3.05;1.88;;;;;;;16.06;92.78;100904.88;5068805;28;20044;-76
2023/08/26 04:17:33;;;;;;;3.15;2.00;;;;;;;16.05;92.87;100908.50;5068205;28;20078;-76
2023/08/26 04:19:59;;;;;;;4.90;2.50;;;;;;;16.03;92.78;100910.38;5053795;28;20067;-76
2023/08/26 04:22:25;;;;;;;2.67;1.60;;;;;;;16.01;92.91;100914.88;5054902;28;20031;-76
2023/08/26 04:24:50;;;;;;;3.47;1.83;;;;;;;16.00;93.03;100908.75;5053079;28;20064;-76
2023/08/26 04:27:18;;;;;;;4.57;1.92;;;;;;;15.99;92.86;100906.22;5071488;28;20041;-76
2023/08/26 04:29:44;;;;;;;4.55;2.03;;;;;;;15.98;92.95;100915.09;5046565;28;20037;-76
2023/08/26 04:32:09;;;;;;;4.82;2.30;;;;;;;15.96;93.06;100912.53;5054548;28;20083;-76
2023/08/26 04:34:35;;;;;;;3.28;1.75;;;;;;;15.95;93.03;100908.19;5054061;28;20048;-76
2023/08/26 04:37:00;;;;;;;2.67;1.92;;;;;;;15.93;92.87;100902.16;5054259;28;20244;-76
2023/08/26 04:39:26;;;;;;;5.15;2.38;;;;;;;15.93;92.85;100903.03;5054482;28;20508;-76
2023/08/26 04:41:51;;;;;;;2.85;1.77;;;;;;;15.91;92.86;100906.69;5063684;28;20092;-76
2023/08/26 04:44:19;;;;;;;5.70;1.90;;;;;;;15.89;93.29;100914.72;5055129;28;20025;-76
2023/08/26 04:46:45;;;;;;;5.40;2.03;;;;;;;15.89;93.31;100917.34;5054265;28;20378;-76
2023/08/26 04:49:10;;;;;;;3.17;1.92;;;;;;;15.88;93.43;100915.66;5053446;28;20041;-76
2023/08/26 04:51:37;;;;;;;4.35;1.80;;;;;;;15.87;93.30;100915.75;5031356;28;20333;-76
2023/08/26 04:54:03;;;;;;;3.55;1.85;;;;;;;15.86;93.21;100922.84;5054857;28;20120;-76
2023/08/26 04:56:28;;;;;;;3.72;2.10;;;;;;;15.86;93.48;100927.25;5074236;28;20056;-76
2023/08/26 04:58:54;;;;;;;4.68;1.83;;;;;;;15.84;93.46;100934.41;5059625;28;20316;-76
2023/08/26 05:01:20;;;;;;;4.55;2.38;;;;;;;15.83;93.27;100930.94;5054418;28;20328;-76
2023/08/26 05:03:45;;;;;;;2.50;1.70;;;;;;;15.82;93.34;100937.16;5054266;28;20123;-76
2023/08/26 05:06:11;;;;;;;2.85;1.60;;;;;;;15.81;93.43;100938.13;5054828;28;20058;-76
2023/08/26 05:08:36;;;;;;;2.42;1.52;;;;;;;15.81;93.53;100930.19;5054381;28;20060;-76
2023/08/26 05:11:03;;;;;;;3.97;1.65;;;;;;;15.80;93.74;100931.13;5054588;28;20029;-76
2023/08/26 05:13:28;;;;;;;2.60;1.58;;;;;;;15.80;93.30;100936.41;5053759;28;20064;-76
2023/08/26 05:15:54;;;;;;;3.42;1.48;;;;;;;15.79;93.14;100932.06;5054410;28;20040;-76
2023/08/26 05:18:21;;;;;;;5.72;1.73;;;;;;;15.78;93.36;100933.00;5053747;28;20262;-76
2023/08/26 05:20:46;;;;;;;4.20;1.35;;;;;;;15.78;93.21;100929.53;5054093;28;20033;-76
2023/08/26 05:23:12;;;;;;;2.35;1.35;;;;;;;15.78;93.43;100940.09;5054063;28;20082;-76
2023/08/26 05:25:38;;;;;;;3.58;1.40;;;;;;;15.76;93.52;100948.09;5052959;28;20096;-76
2023/08/26 05:28:04;;;;;;;5.57;1.80;;;;;;;15.76;93.34;100939.34;5030128;28;20221;-76
2023/08/26 05:30:30;;;;;;;4.22;2.05;;;;;;;15.74;93.41;100937.63;5037879;28;20041;-76
2023/08/26 05:32:56;;;;;;;2.60;1.50;;;;;;;15.74;93.30;100936.78;5050522;28;20309;-76
2023/08/26 05:35:22;;;;;;;3.10;1.30;;;;;;;15.74;93.40;100939.44;5057419;28;20033;-76
2023/08/26 05:37:47;;;;;;;2.58;1.83;;;;;;;15.73;93.51;100930.63;5063545;28;20253;-76
2023/08/26 05:40:13;;;;;;;3.53;1.67;;;;;;;15.74;93.31;100940.25;5053102;28;20328;-76
2023/08/26 05:42:39;;;;;;;2.60;1.20;;;;;;;15.73;93.54;100935.91;5049991;28;20300;-76
2023/08/26 05:45:06;;;;;;;3.03;1.30;;;;;;;15.74;93.29;100934.16;5056356;28;20037;-76
2023/08/26 05:47:31;;;;;;;3.95;1.73;;;;;;;15.73;93.58;100932.41;5060641;28;20047;-76
2023/08/26 05:49:58;;;;;;;4.60;1.35;;;;;;;15.72;93.43;100923.63;5063059;28;20315;-76
2023/08/26 05:52:24;;;;;;;3.78;1.83;;;;;;;15.72;93.66;100915.72;5044398;28;20193;-76
2023/08/26 05:54:49;;;;;;;1.50;1.40;;;;;;;15.74;93.65;100919.16;5059906;28;20026;-76
2023/08/26 05:57:15;;;;;;;5.05;1.80;;;;;;;15.73;93.94;100920.06;5064606;28;20047;-76
2023/08/26 05:59:40;;;;;;;2.03;1.77;;;;;;;15.74;94.13;100915.66;5063796;28;20100;-76
2023/08/26 06:02:06;;;;;;;2.92;1.38;;;;;;;15.74;94.06;100913.03;5073343;28;20025;-76
2023/08/26 06:04:31;;;;;;;3.08;1.40;;;;;;;15.74;94.06;100911.22;5065068;28;20061;-76
2023/08/26 06:07:00;;;;;;;3.35;1.50;;;;;;;15.74;94.14;100905.09;5065117;28;20245;-76
2023/08/26 06:09:26;;;;;;;1.88;1.60;;;;;;;15.74;94.12;100907.75;5066543;28;20041;-76
2023/08/26 06:11:51;;;;;;;3.40;1.92;;;;;;;15.74;94.03;100891.91;5067034;28;20044;-76
2023/08/26 06:14:16;;;;;;;5.80;1.75;;;;;;;15.75;94.05;100896.22;5065363;28;20032;-76
2023/08/26 06:16:42;;;;;;;2.65;1.58;;;;;;;15.74;94.04;100913.03;5064854;28;20039;-76
2023/08/26 06:19:08;;;;;;;2.92;1.75;;;;;;;15.75;94.18;100914.69;5062378;28;20043;-76
2023/08/26 06:21:34;;;;;;;3.75;1.80;;;;;;;15.76;94.17;100905.00;5067299;28;20335;-76
2023/08/26 06:23:59;;;;;;;2.97;1.65;;;;;;;15.76;94.50;100916.41;5063192;28;20035;-76
2023/08/26 06:26:25;;;;;;;3.88;1.75;;;;;;;15.78;94.36;100926.88;5065816;28;20032;-76
2023/08/26 06:28:51;;;;;;;9.02;2.00;;;;;;;15.78;94.47;100938.28;5064027;28;20062;-76
2023/08/26 06:31:16;;;;;;;4.03;2.03;;;;;;;15.80;94.26;100946.13;5067058;28;20331;-76
2023/08/26 06:33:43;;;;;;;2.80;1.60;;;;;;;15.79;94.54;100958.47;5062460;28;20028;-76
2023/08/26 06:36:08;;;;;;;2.88;1.50;;;;;;;15.82;94.64;100966.19;5066524;28;20036;-76
2023/08/26 06:38:33;;;;;;;4.75;1.63;;;;;;;15.82;94.71;100979.41;5065746;28;20250;-76
2023/08/26 06:40:59;;;;;;;2.55;1.80;;;;;;;15.83;94.54;100970.56;5064694;28;20328;-76
2023/08/26 06:43:24;;;;;;;4.80;1.80;;;;;;;15.82;94.40;100963.56;5066498;28;20316;-76
2023/08/26 06:45:50;;;;;;;1.90;1.45;;;;;;;15.82;94.64;100966.19;5066941;28;20037;-76
2023/08/26 06:48:16;;;;;;;5.88;2.00;;;;;;;15.83;94.44;100965.28;5058535;28;20042;-76
2023/08/26 06:50:46;;;;;;;4.10;1.63;;;;;;;15.82;94.67;100958.28;5060055;28;20060;-76
2023/08/26 06:53:11;;;;;;;3.70;1.60;;;;;;;15.84;94.61;100959.03;5038994;28;20065;-76
2023/08/26 06:55:37;;;;;;;3.55;1.60;;;;;;;15.83;94.50;100961.78;5055787;28;20394;-76
2023/08/26 06:58:02;;;;;;;4.00;1.80;;;;;;;15.84;94.36;100974.88;5056459;28;20039;-76
2023/08/26 07:00:28;;;;;;;2.75;1.95;;;;;;;15.84;94.37;100964.31;5056547;28;20047;-76
2023/08/26 07:02:53;;;;;;;3.15;2.03;;;;;;;15.84;94.60;100959.03;5056297;28;20304;-76
2023/08/26 07:05:18;;;;;;;2.58;2.17;;;;;;;15.85;94.29;100952.81;5056080;28;20052;-76
2023/08/26 07:07:44;;;;;;;3.13;1.90;;;;;;;15.85;94.21;100959.91;5056163;28;20096;-76
2023/08/26 07:10:10;;;;;;;2.17;1.98;;;;;;;15.86;94.40;100967.72;5054877;28;20040;-76
2023/08/26 07:12:36;;;;;;;3.45;1.90;;;;;;;15.88;94.63;100957.06;5054401;28;20029;-76
2023/08/26 07:15:03;;;;;;;2.65;1.55;;;;;;;15.89;94.31;100959.59;5053704;28;20040;-76
2023/08/26 07:17:28;;;;;;;2.08;1.77;;;;;;;15.90;94.33;100955.19;5061177;28;20235;-76
2023/08/26 07:19:54;;;;;;;1.73;1.63;;;;;;;15.91;94.28;100963.00;5054798;28;20227;-76
2023/08/26 07:22:19;;;;;;;3.08;1.80;;;;;;;15.92;94.21;100958.59;5054490;28;20098;-76
2023/08/26 07:24:45;;;;;;;1.60;1.50;;;;;;;15.95;94.37;100965.47;5037368;28;20035;-76
2023/08/26 07:27:10;;;;;;;3.38;1.88;;;;;;;15.97;94.53;100974.13;5038091;28;20328;-76
2023/08/26 07:29:37;;;;;;;2.22;1.55;;;;;;;15.96;94.42;100970.66;5055282;28;20310;-76
2023/08/26 07:32:03;;;;;;;5.00;2.05;;;;;;;15.98;94.32;100966.13;5037672;28;20028;-76
2023/08/26 07:34:29;;;;;;;1.83;1.67;;;;;;;15.99;94.42;100965.19;5054763;28;20036;-76
2023/08/26 07:36:54;;;;;;;2.08;1.55;;;;;;;16.01;94.21;100967.72;5039878;28;20074;-76
2023/08/26 07:39:20;;;;;;;2.75;1.65;;;;;;;16.02;94.33;100972.91;5063536;28;20337;-76
2023/08/26 07:41:46;;;;;;;3.40;1.60;;;;;;;16.04;94.56;100965.72;5063166;28;20050;-76
2023/08/26 07:44:12;;;;;;;1.50;1.40;;;;;;;16.06;94.28;100955.06;5060934;28;20040;-76
2023/08/26 07:46:37;;;;;;;1.30;1.20;;;;;;;16.08;94.20;100967.25;5054212;28;20029;-76
2023/08/26 07:49:04;;;;;;;1.63;1.40;;;;;;;16.09;94.43;100961.00;5061889;28;20040;-76
2023/08/26 07:51:29;;;;;;;2.42;1.40;;;;;;;16.11;94.20;100959.13;5061869;28;20039;-76
2023/08/26 07:53:54;;;;;;;1.70;1.33;;;;;;;16.13;94.16;100961.69;5063613;28;20040;-76
2023/08/26 07:56:20;;;;;;;1.85;1.30;;;;;;;16.15;94.34;100951.84;5064172;28;20408;-76
2023/08/26 07:58:45;;;;;;;2.00;1.33;;;;;;;16.17;94.36;100962.34;5062714;28;20052;-76
2023/08/26 08:01:10;;;;;;;1.50;1.40;;;;;;;16.19;94.29;100960.44;5060569;28;20063;-76
2023/08/26 08:03:36;;;;;;;1.50;1.40;;;;;;;16.20;93.91;100964.81;5062037;28;20057;-76
2023/08/26 08:06:01;;;;;;;3.17;1.77;;;;;;;16.20;93.68;100970.91;5048659;28;20438;-76
2023/08/26 08:08:27;;;;;;;4.20;1.27;;;;;;;16.22;93.52;100974.31;5045488;28;20037;-76
2023/08/26 08:10:52;;;;;;;2.08;1.20;;;;;;;16.23;93.40;100976.03;5041158;28;20097;-76
2023/08/26 08:13:17;;;;;;;1.67;1.50;;;;;;;16.24;93.15;100967.13;5056457;28;20394;-76
2023/08/26 08:15:43;;;;;;;3.55;1.38;;;;;;;16.24;92.68;100972.41;5026409;28;20041;-76
2023/08/26 08:18:08;;;;;;;1.75;1.27;;;;;;;16.24;92.59;100967.13;5049907;28;20077;-76
2023/08/26 08:20:34;;;;;;;1.55;1.50;;;;;;;16.26;92.57;100974.97;5037541;28;20231;-76
2023/08/26 08:22:59;;;;;;;2.38;2.03;;;;;;;16.25;92.89;100971.50;5051532;28;20028;-76
2023/08/26 08:25:24;;;;;;;2.30;1.75;;;;;;;16.26;92.44;100973.19;5053444;28;20350;-76
2023/08/26 08:27:50;;;;;;;1.90;1.80;;;;;;;16.27;92.61;100979.31;5054955;28;20124;-76
2023/08/26 08:30:16;;;;;;;2.25;2.10;;;;;;;16.27;92.74;100977.53;5051065;28;20060;-76
2023/08/26 08:32:41;;;;;;;2.90;2.20;;;;;;;16.28;92.81;100981.00;5047172;28;20323;-76
2023/08/26 08:35:07;;;;;;;2.08;1.88;;;;;;;16.30;92.92;100982.63;5046085;28;20037;-76
2023/08/26 08:37:33;;;;;;;2.05;1.92;;;;;;;16.30;92.89;100976.50;5040585;28;20047;-76
2023/08/26 08:39:59;;;;;;;3.15;2.33;;;;;;;16.32;92.84;100982.53;5025746;28;20075;-76
2023/08/26 08:42:25;;;;;;;2.85;2.65;;;;;;;16.34;92.20;100985.09;5050899;28;20033;-76
2023/08/26 08:44:51;;;;;;;2.35;2.10;;;;;;;16.33;92.53;100986.84;5058187;28;20045;-76
2023/08/26 08:47:17;;;;;;;2.33;2.17;;;;;;;16.35;92.44;100992.06;5036872;28;20069;-76
2023/08/26 08:49:43;;;;;;;2.75;2.20;;;;;;;16.36;92.30;100994.59;5047157;28;20223;-76
2023/08/26 08:52:10;;;;;;;2.20;2.10;;;;;;;16.38;92.23;100987.44;5051152;28;20041;-76
2023/08/26 08:54:35;;;;;;;2.95;2.33;;;;;;;16.39;92.31;100993.56;5047420;28;20127;-76
2023/08/26 08:57:06;;;;;;;2.47;2.38;;;;;;;16.40;92.12;101001.41;5019073;28;20049;-76
2023/08/26 08:59:35;;;;;;;2.50;2.30;;;;;;;16.42;92.12;101009.22;5040873;28;20033;-76
2023/08/26 09:02:02;;;;;;;2.80;2.60;;;;;;;16.42;92.21;101007.44;5044282;28;20049;-76
2023/08/26 09:04:28;;;;;;;2.30;2.05;;;;;;;16.44;92.36;101002.88;5038232;28;20066;-76
2023/08/26 09:06:54;;;;;;;2.35;2.20;;;;;;;16.47;92.38;101007.16;5023416;28;20060;-76
2023/08/26 09:09:20;;;;;;;2.40;2.20;;;;;;;16.48;92.26;101003.53;5041607;28;20292;-76
2023/08/26 09:11:47;;;;;;;2.35;2.13;;;;;;;16.50;92.46;101002.53;5044383;28;20049;-76
2023/08/26 09:14:12;;;;;;;2.33;2.13;;;;;;;16.54;92.56;101007.63;5049890;28;20041;-76
2023/08/26 09:16:40;;;;;;;2.40;2.20;;;;;;;16.56;92.31;101011.03;5047386;28;20051;-76
2023/08/26 09:19:06;;;;;;;2.78;2.47;;;;;;;16.59;92.56;101010.81;5050761;28;20041;-76
2023/08/26 09:21:32;;;;;;;2.95;2.42;;;;;;;16.62;92.22;101010.63;5052531;28;20028;-76
2023/08/26 09:23:57;;;;;;;2.63;2.35;;;;;;;16.62;91.93;101019.38;5052785;28;20512;-76
2023/08/26 09:26:24;;;;;;;2.28;2.08;;;;;;;16.64;91.60;101025.44;5051533;28;20094;-76
2023/08/26 09:28:53;;;;;;;3.05;1.77;;;;;;;16.65;91.25;101021.84;5052996;28;20072;-76
2023/08/26 09:31:19;;;;;;;1.90;1.80;;;;;;;16.66;91.06;101020.91;5053093;28;20025;-76
2023/08/26 09:34:03;;;;;;;2.60;1.60;;;;;;;16.67;91.07;101022.59;5055362;28;20370;-76
2023/08/26 09:36:41;;;;;;;1.38;1.27;;;;;;;16.68;90.66;101008.44;5037764;28;20041;-76
2023/08/26 09:39:14;;;;;;;1.80;1.42;;;;;;;16.69;90.33;101011.94;5052835;28;20025;-75
2023/08/26 09:41:43;;;;;;;1.65;0.70;;;;;;;16.70;90.25;101013.63;5052534;28;20090;-75
2023/08/26 09:44:10;;;;;;;1.55;1.00;;;;;;;16.70;90.10;101013.63;5052868;28;20364;-75
2023/08/26 09:46:36;;;;;;;1.88;1.23;;;;;;;16.72;90.10;101008.22;5032469;28;20029;-76
2023/08/26 09:49:05;;;;;;;1.48;1.13;;;;;;;16.72;90.15;101002.94;5053226;28;20253;-76
2023/08/26 09:51:30;;;;;;;;;;;;;;;16.73;90.07;101012.59;5052501;28;20037;-76
2023/08/26 09:53:57;;;;;;;1.83;1.10;;;;;;;16.73;90.16;101010.78;5052959;28;19916;-75
2023/08/26 09:56:24;;;;;;;1.83;1.30;;;;;;;16.74;90.21;101020.44;5035129;28;20283;-75
2023/08/26 09:58:54;;;;;;;1.27;1.17;;;;;;;16.76;90.38;101017.69;5052987;28;20263;-75
2023/08/26 10:01:20;;;;;;;2.50;1.38;;;;;;;16.78;90.52;101023.72;5052690;28;20033;-75
2023/08/26 10:03:51;;;;;;;2.10;1.30;;;;;;;16.80;90.65;101025.31;5037812;28;20064;-75
2023/08/26 10:06:19;;;;;;;1.40;1.30;;;;;;;16.83;90.92;101019.88;5051776;28;20033;-75
2023/08/26 10:08:48;;;;;;;1.52;1.00;;;;;;;16.87;90.85;101020.53;5052729;28;20037;-75
2023/08/26 10:11:18;;;;;;;5.50;2.55;;;;;;;16.89;90.89;101016.81;5048060;28;20029;-75
2023/08/26 10:13:46;;;;;;;1.75;1.40;;;;;;;16.93;90.91;101014.81;5054401;28;20320;-76
2023/08/26 10:16:14;;;;;;;2.73;1.57;;;;;;;16.97;91.22;101015.47;5054383;28;20082;-75
2023/08/26 10:18:46;;;;;;;2.75;1.52;;;;;;;17.00;91.09;101013.47;5053486;28;20035;-76
2023/08/26 10:21:13;;;;;;;4.70;1.52;;;;;;;17.04;91.01;101012.31;5047756;28;20033;-76
2023/08/26 10:23:39;;;;;;;1.73;1.40;;;;;;;17.08;90.91;101000.63;5050733;28;20040;-76
2023/08/26 10:26:06;;;;;;;4.13;1.50;;;;;;;17.11;90.58;101002.19;5053657;28;20346;-76
2023/08/26 10:28:33;;;;;;;2.47;1.55;;;;;;;17.12;90.65;101008.31;5054778;28;20040;-76
2023/08/26 10:30:59;;;;;;;1.50;1.40;;;;;;;17.13;90.46;100999.44;5046096;28;20056;-75
2023/08/26 10:33:24;;;;;;;2.83;1.38;;;;;;;17.13;89.90;101002.94;5054857;28;20294;-76
2023/08/26 10:36:11;;;;;;;2.03;1.02;;;;;;;17.14;89.69;101003.81;5052704;28;20103;-76
2023/08/26 10:38:39;;;;;;;1.63;1.05;;;;;;;17.14;89.33;101001.16;5043994;28;20032;-76
2023/08/26 10:41:10;;;;;;;1.23;0.80;;;;;;;17.14;89.18;101009.09;5043889;28;20320;-76
2023/08/26 10:43:35;;;;;;;2.55;0.85;;;;;;;17.13;88.98;101005.59;5049774;28;20053;-76
2023/08/26 10:46:01;;;;;;;1.15;0.70;;;;;;;17.14;88.47;101006.47;5055561;28;20067;-76
2023/08/26 10:48:27;;;;;;;1.55;0.80;;;;;;;17.13;88.44;101002.94;5054874;28;20036;-76
2023/08/26 10:51:02;;;;;;;0.80;0.80;;;;;;;17.15;88.33;101013.44;5049519;28;20044;-76
2023/08/26 10:53:28;;;;;;;0.55;0.55;;;;;;;17.14;88.28;101017.03;5055497;28;20043;-76
2023/08/26 10:56:11;;;;;;;2.22;0.70;;;;;;;17.14;88.13;101004.66;5050959;28;20049;-76
2023/08/26 10:58:45;;;;;;;1.40;0.98;;;;;;;17.14;87.86;101007.28;5055269;28;20060;-76
2023/08/26 11:01:12;;;;;;;1.98;0.70;;;;;;;17.14;87.83;101011.75;5050374;28;20064;-76
2023/08/26 11:03:37;;;;;;;4.10;1.10;;;;;;;17.13;87.67;101002.09;5050841;28;20146;-76
2023/08/26 11:06:08;;;;;;;0.80;0.60;;;;;;;17.13;87.19;101005.59;5049861;28;20096;-76
2023/08/26 11:08:37;;;;;;;1.45;0.80;;;;;;;17.12;87.29;101010.97;5050021;28;20044;-76
2023/08/26 11:11:03;;;;;;;1.65;0.90;;;;;;;17.11;87.44;101002.19;5050807;28;20039;-76
2023/08/26 11:13:28;;;;;;;2.47;1.00;;;;;;;17.12;87.12;101003.03;5049575;28;20064;-76
2023/08/26 11:15:53;;;;;;;3.13;1.02;;;;;;;17.11;87.21;101001.34;5051882;28;20041;-76
2023/08/26 11:18:21;;;;;;;0.65;0.55;;;;;;;17.12;87.31;101008.31;5051617;28;20347;-76
2023/08/26 11:20:46;;;;;;;0.85;0.55;;;;;;;17.14;87.43;101007.28;5051892;28;20029;-76